Time;durP1;ratioP1;P1;durP2;ratioP2;P2;SDS_P1;SDS_P2;PMS_P1;PMS_P2;Temp;Humidity;BMP_temperature;BMP_pressure;BME280_temperature;BME280_humidity;BME280_pressure;Samples;Min_cycle;Max_cycle;Signal;HPM_P1;HPM_P2
2023/07/11 00:00:52;;;;;;;20.58;14.60;;;;;;;26.45;100.00;97677.50;4828647;29;20089;-68
2023/07/11 00:03:21;;;;;;;22.08;15.20;;;;;;;26.44;100.00;97680.53;4831963;29;20776;-68
2023/07/11 00:06:01;;;;;;;19.35;14.07;;;;;;;26.44;100.00;97685.97;4829892;29;20130;-68
2023/07/11 00:08:31;;;;;;;21.45;14.68;;;;;;;26.45;100.00;97684.84;4799992;29;20621;-68
2023/07/11 00:11:00;;;;;;;19.20;13.45;;;;;;;26.46;100.00;97678.31;4829174;29;20138;-68
2023/07/11 00:13:29;;;;;;;19.65;13.30;;;;;;;26.46;100.00;97687.25;4826817;29;20446;-68
2023/07/11 00:16:04;;;;;;;19.85;13.38;;;;;;;26.46;100.00;97684.53;4829516;29;20054;-67
2023/07/11 00:18:34;;;;;;;22.67;15.18;;;;;;;26.46;100.00;97681.81;4828799;29;20050;-67
2023/07/11 00:21:04;;;;;;;21.13;14.00;;;;;;;26.47;100.00;97679.88;4813604;29;20455;-67
2023/07/11 00:23:33;;;;;;;23.80;14.95;;;;;;;26.47;100.00;97674.44;4816053;29;20159;-67
2023/07/11 00:26:03;;;;;;;21.92;14.40;;;;;;;26.48;100.00;97674.13;4828443;29;20148;-67
2023/07/11 00:28:33;;;;;;;21.13;14.35;;;;;;;26.46;100.00;97670.97;4824696;29;20069;-68
2023/07/11 00:31:36;;;;;;;21.95;15.18;;;;;;;26.49;100.00;97675.75;4826363;29;20072;-66
2023/07/11 00:38:07;;;;;;;17.38;12.82;;;;;;;26.53;100.00;97662.31;4824281;29;20597;-67
2023/07/11 00:40:42;;;;;;;19.63;13.65;;;;;;;26.57;100.00;97669.50;4826707;29;20498;-67
2023/07/11 00:43:14;;;;;;;18.95;12.52;;;;;;;26.59;100.00;97669.19;4836238;29;20382;-67
2023/07/11 00:46:04;;;;;;;19.98;12.70;;;;;;;26.64;100.00;97666.31;4812565;29;20133;-67
2023/07/11 00:48:38;;;;;;;18.42;12.73;;;;;;;26.67;100.00;97666.44;4823815;29;20057;-68
2023/07/11 00:51:11;;;;;;;21.15;13.45;;;;;;;26.69;100.00;97672.34;4827583;29;20050;-67
2023/07/11 00:53:43;;;;;;;17.88;13.40;;;;;;;26.71;100.00;97675.56;4812092;29;20058;-67
2023/07/11 00:56:19;;;;;;;21.23;14.05;;;;;;;26.76;100.00;97675.38;4821452;29;20119;-68
2023/07/11 00:58:49;;;;;;;20.55;12.60;;;;;;;26.80;100.00;97680.97;4824919;29;20082;-68
2023/07/11 01:01:20;;;;;;;20.83;12.82;;;;;;;26.86;100.00;97682.44;4804627;29;20767;-67
2023/07/11 01:03:53;;;;;;;21.75;14.95;;;;;;;26.90;100.00;97674.44;4824401;29;20050;-67
2023/07/11 01:06:26;;;;;;;22.48;14.80;;;;;;;26.91;100.00;97682.25;4828115;29;20077;-67
2023/07/11 01:08:57;;;;;;;21.02;13.30;;;;;;;26.94;100.00;97680.81;4809608;29;20046;-66
2023/07/11 01:11:30;;;;;;;20.33;14.45;;;;;;;27.01;100.00;97683.81;4828113;29;20399;-67
2023/07/11 01:14:00;;;;;;;23.08;14.27;;;;;;;27.03;100.00;97689.75;4836877;29;20050;-67
2023/07/11 01:16:29;;;;;;;21.17;15.77;;;;;;;27.09;100.00;97683.78;4829491;29;20153;-67
2023/07/11 01:18:59;;;;;;;23.00;15.27;;;;;;;27.05;100.00;97684.78;4829941;29;20061;-67
2023/07/11 01:21:32;;;;;;;25.90;15.93;;;;;;;27.08;100.00;97676.78;4846222;29;20114;-67
2023/07/11 01:24:02;;;;;;;22.48;14.65;;;;;;;27.17;100.00;97682.97;4829400;29;20072;-68
2023/07/11 01:26:32;;;;;;;19.98;14.75;;;;;;;27.25;100.00;97686.81;4810473;29;20787;-67
2023/07/11 01:29:01;;;;;;;21.13;14.75;;;;;;;27.27;100.00;97689.97;4826057;29;20069;-67
2023/07/11 01:31:35;;;;;;;23.67;15.80;;;;;;;27.25;100.00;97686.81;4839150;29;20054;-67
2023/07/11 01:34:08;;;;;;;25.10;15.93;;;;;;;27.40;100.00;97688.16;4824666;29;20046;-67
2023/07/11 01:36:37;;;;;;;24.83;17.23;;;;;;;27.41;100.00;97687.84;4825327;29;20046;-67
2023/07/11 01:39:07;;;;;;;25.67;17.42;;;;;;;27.37;100.00;97688.81;4814058;29;20573;-66
2023/07/11 01:41:36;;;;;;;24.98;18.70;;;;;;;27.50;100.00;97685.91;4834353;29;20059;-67
2023/07/11 01:44:06;;;;;;;27.20;20.85;;;;;;;27.73;100.00;97686.44;4821164;29;20069;-67
2023/07/11 01:46:37;;;;;;;28.95;20.67;;;;;;;28.03;100.00;97687.22;4802470;29;20059;-67
2023/07/11 01:49:07;;;;;;;34.80;21.23;;;;;;;28.21;100.00;97694.16;4823145;29;20065;-67
2023/07/11 01:51:36;;;;;;;29.30;21.10;;;;;;;28.54;100.00;97694.25;4840835;29;20054;-67
2023/07/11 01:54:06;;;;;;;28.52;21.80;;;;;;;28.69;100.00;97700.97;4805805;29;20071;-68
2023/07/11 01:56:36;;;;;;;44.60;26.27;;;;;;;28.63;100.00;97702.34;4806011;29;20111;-67
2023/07/11 01:59:06;;;;;;;40.45;29.55;;;;;;;28.73;100.00;97700.00;4832777;29;20090;-67
2023/07/11 02:01:36;;;;;;;35.75;26.60;;;;;;;29.15;100.00;97694.47;4820372;29;20050;-67
2023/07/11 02:04:05;;;;;;;57.53;38.65;;;;;;;29.24;98.03;97706.06;4811740;29;20046;-68
2023/07/11 02:06:35;;;;;;;86.35;39.75;;;;;;;29.09;99.92;97704.78;4833982;29;20063;-68
2023/07/11 02:09:05;;;;;;;58.08;42.35;;;;;;;29.01;100.00;97705.69;4807702;29;20062;-68
2023/07/11 02:11:35;;;;;;;62.05;44.05;;;;;;;29.38;99.85;97703.84;4820008;29;20058;-68
2023/07/11 02:14:04;;;;;;;80.40;56.78;;;;;;;29.56;96.92;97716.16;4837893;29;20426;-67
2023/07/11 02:16:34;;;;;;;86.18;61.75;;;;;;;29.85;95.26;97709.66;4810550;29;21431;-67
2023/07/11 02:19:05;;;;;;;84.15;59.38;;;;;;;29.83;94.16;97714.66;4834823;29;20054;-67
2023/07/11 02:21:39;;;;;;;72.90;51.67;;;;;;;29.94;94.04;97713.09;4803373;29;20051;-67
2023/07/11 02:24:12;;;;;;;62.20;43.63;;;;;;;30.03;92.03;97718.44;4821223;29;20050;-67
2023/07/11 02:26:42;;;;;;;53.60;41.30;;;;;;;30.26;91.92;97719.56;4806603;29;20051;-68
2023/07/11 02:29:12;;;;;;;47.72;34.17;;;;;;;30.17;90.19;97721.63;4820827;29;20369;-67
2023/07/11 02:31:41;;;;;;;50.50;37.50;;;;;;;30.58;90.41;97724.03;4830420;29;20145;-68
2023/07/11 02:34:11;;;;;;;57.20;42.30;;;;;;;30.70;88.41;97715.00;4837013;29;20069;-68
2023/07/11 02:36:41;;;;;;;52.08;37.97;;;;;;;31.23;86.30;97713.75;4808641;29;20122;-67
2023/07/11 02:39:11;;;;;;;44.20;33.08;;;;;;;31.30;86.03;97710.38;4809278;29;20065;-67
2023/07/11 02:44:44;;;;;;;50.28;34.05;;;;;;;31.62;82.35;97729.25;4824843;29;20486;-67
2023/07/11 02:47:13;;;;;;;46.05;34.13;;;;;;;31.71;82.80;97723.59;4825444;29;20134;-67
2023/07/11 02:49:43;;;;;;;44.40;33.22;;;;;;;32.08;81.42;97722.13;4826388;29;20463;-67
2023/07/11 02:52:12;;;;;;;48.35;33.33;;;;;;;32.41;80.27;97724.44;4824791;29;20065;-67
2023/07/11 02:54:42;;;;;;;46.78;33.40;;;;;;;32.55;81.68;97723.94;4837861;29;20147;-68
2023/07/11 02:57:11;;;;;;;47.25;33.72;;;;;;;31.80;78.31;97728.88;4825075;29;20206;-68
2023/07/11 02:59:41;;;;;;;46.83;34.40;;;;;;;31.88;80.42;97730.63;4823464;29;20057;-67
2023/07/11 03:02:10;;;;;;;39.17;29.67;;;;;;;32.78;78.41;97733.09;4820903;29;20050;-68
2023/07/11 03:04:40;;;;;;;30.52;24.17;;;;;;;32.42;76.42;97726.03;4843478;29;20132;-67
2023/07/11 03:07:09;;;;;;;35.60;25.20;;;;;;;32.65;75.93;97723.41;4823851;29;20145;-68
2023/07/11 03:09:39;;;;;;;35.30;26.90;;;;;;;32.23;77.13;97720.50;4810368;29;20085;-69
2023/07/11 03:12:08;;;;;;;29.95;21.92;;;;;;;32.37;76.56;97718.09;4829049;29;20833;-68
2023/07/11 03:14:39;;;;;;;28.48;21.33;;;;;;;32.52;76.58;97728.22;4835739;29;20114;-68
2023/07/11 03:17:09;;;;;;;21.70;14.80;;;;;;;32.61;73.88;97728.00;4844972;29;20478;-68
2023/07/11 03:19:38;;;;;;;21.48;13.20;;;;;;;32.45;73.17;97730.78;4822730;29;20062;-69
2023/07/11 03:22:08;;;;;;;17.95;10.63;;;;;;;32.77;76.20;97728.75;4826325;29;20066;-68
2023/07/11 03:24:37;;;;;;;13.77;9.63;;;;;;;32.86;72.69;97734.81;4824806;29;20122;-68
2023/07/11 03:27:07;;;;;;;16.48;10.57;;;;;;;32.69;73.07;97727.03;4825340;29;20069;-68
2023/07/11 03:29:36;;;;;;;15.13;9.20;;;;;;;32.81;77.01;97732.34;4828082;29;20052;-68
2023/07/11 03:32:09;;;;;;;12.15;9.38;;;;;;;32.45;72.76;97728.03;4812711;29;20070;-66
2023/07/11 03:34:38;;;;;;;13.48;8.90;;;;;;;32.34;74.07;97735.25;4826057;29;20061;-67
2023/07/11 03:37:21;;;;;;;;;;;;;;;32.05;72.64;97743.94;4829316;29;21559;-66
2023/07/11 03:39:50;;;;;;;10.25;7.78;;;;;;;32.37;72.57;97740.03;4828176;29;19934;-67
2023/07/11 03:42:20;;;;;;;14.43;8.50;;;;;;;32.63;74.30;97741.38;4839134;29;20054;-66
2023/07/11 03:44:49;;;;;;;14.27;7.95;;;;;;;32.48;71.84;97737.53;4833303;29;20059;-66
2023/07/11 03:47:19;;;;;;;10.13;7.72;;;;;;;32.30;72.09;97733.59;4807114;29;20430;-66
2023/07/11 03:49:49;;;;;;;12.68;8.07;;;;;;;32.34;70.94;97737.22;4808148;29;20053;-66
2023/07/11 03:52:18;;;;;;;10.32;7.65;;;;;;;33.21;69.58;97739.41;4810080;29;20151;-66
2023/07/11 03:54:48;;;;;;;11.95;7.53;;;;;;;33.30;69.91;97738.03;4821823;29;20051;-67
2023/07/11 03:57:17;;;;;;;12.88;8.00;;;;;;;33.60;72.25;97745.59;4811197;29;20053;-67
2023/07/11 03:59:47;;;;;;;14.00;8.55;;;;;;;33.35;71.87;97737.72;4804641;29;20050;-66
2023/07/11 04:02:16;;;;;;;11.15;8.60;;;;;;;33.56;70.90;97750.22;4812703;29;20043;-67
2023/07/11 04:04:46;;;;;;;11.43;8.38;;;;;;;32.93;71.39;97751.41;4806066;29;20519;-67
2023/07/11 04:07:15;;;;;;;14.50;8.65;;;;;;;32.35;71.08;97758.75;4806778;29;20126;-67
2023/07/11 04:09:46;;;;;;;12.75;8.73;;;;;;;33.19;71.62;97758.22;4813050;29;20062;-67
2023/07/11 04:12:15;;;;;;;15.48;10.48;;;;;;;33.22;70.60;97760.22;4810316;29;20064;-67
2023/07/11 04:14:44;;;;;;;33.67;11.13;;;;;;;33.30;70.36;97757.25;4804149;29;20064;-67
2023/07/11 04:17:13;;;;;;;19.38;10.18;;;;;;;33.47;68.16;97760.66;4807460;29;20061;-67
2023/07/11 04:19:43;;;;;;;18.60;10.30;;;;;;;33.59;69.25;97760.50;4806631;29;20051;-68
2023/07/11 04:22:12;;;;;;;18.13;11.68;;;;;;;33.79;69.03;97757.34;4803104;29;20107;-67
2023/07/11 04:24:43;;;;;;;17.90;11.50;;;;;;;33.87;66.05;97758.25;4804289;29;20051;-67
2023/07/11 04:27:12;;;;;;;19.88;12.93;;;;;;;33.94;68.04;97749.31;4803846;29;20066;-68
2023/07/11 04:29:44;;;;;;;22.70;15.55;;;;;;;33.69;69.17;97749.72;4809378;29;20083;-68
2023/07/11 04:32:13;;;;;;;22.33;15.52;;;;;;;33.13;68.90;97760.41;4809198;29;20058;-68
2023/07/11 04:34:42;;;;;;;24.05;16.38;;;;;;;33.69;68.63;97754.41;4805344;29;20479;-68
2023/07/11 04:37:12;;;;;;;23.10;15.57;;;;;;;33.77;68.45;97756.91;4804717;29;20432;-68
2023/07/11 04:39:41;;;;;;;22.48;14.88;;;;;;;34.45;66.56;97750.50;4832043;29;20046;-67
2023/07/11 04:42:11;;;;;;;21.73;15.20;;;;;;;34.23;65.82;97754.09;4800581;29;20069;-68
2023/07/11 04:44:41;;;;;;;23.67;15.25;;;;;;;34.36;68.29;97760.19;4838970;29;20367;-68
2023/07/11 04:47:10;;;;;;;20.73;15.20;;;;;;;34.07;65.15;97758.97;4808995;29;20119;-68
2023/07/11 04:49:40;;;;;;;28.30;17.92;;;;;;;33.88;66.71;97754.34;4814806;29;20081;-68
2023/07/11 04:52:11;;;;;;;29.10;17.85;;;;;;;34.15;66.33;97760.63;4822124;29;20123;-68
2023/07/11 04:54:41;;;;;;;22.00;15.93;;;;;;;34.67;66.39;97752.41;4838276;29;20133;-68
2023/07/11 04:57:10;;;;;;;24.17;17.27;;;;;;;34.65;65.62;97754.69;4817520;29;20505;-66
2023/07/11 04:59:40;;;;;;;25.48;19.27;;;;;;;34.41;66.40;97757.91;4828367;29;20153;-68
2023/07/11 05:02:10;;;;;;;26.10;17.67;;;;;;;34.40;64.48;97753.56;4804951;29;20122;-68
2023/07/11 05:04:41;;;;;;;29.77;19.50;;;;;;;34.79;65.15;97747.84;4821953;29;20455;-68
2023/07/11 05:07:10;;;;;;;29.27;18.45;;;;;;;34.73;63.65;97744.63;4806071;29;20150;-68
2023/07/11 05:09:40;;;;;;;27.95;18.40;;;;;;;34.83;64.07;97748.66;4805354;29;20050;-66
2023/07/11 05:12:26;;;;;;;28.10;19.58;;;;;;;34.86;63.25;97754.19;4790050;29;20078;-71
2023/07/11 05:14:56;;;;;;;26.75;18.48;;;;;;;35.13;64.78;97743.91;4805053;29;20047;-71
2023/07/11 05:17:25;;;;;;;27.00;18.45;;;;;;;34.99;64.55;97738.22;4825250;29;20058;-71
2023/07/11 05:19:55;;;;;;;28.48;18.60;;;;;;;35.17;64.13;97746.72;4789534;29;20059;-69
2023/07/11 05:22:26;;;;;;;29.92;19.33;;;;;;;34.95;62.22;97738.19;4799956;29;20046;-69
2023/07/11 05:24:56;;;;;;;30.65;20.00;;;;;;;34.74;63.08;97737.16;4801329;29;20459;-70
2023/07/11 05:27:27;;;;;;;32.53;20.05;;;;;;;34.85;62.72;97732.56;4811008;29;20593;-70
2023/07/11 05:29:57;;;;;;;29.77;19.85;;;;;;;35.10;64.17;97739.13;4809956;29;20054;-70
2023/07/11 05:32:27;;;;;;;30.75;21.48;;;;;;;34.27;64.13;97733.75;4818722;29;20066;-69
2023/07/11 05:34:57;;;;;;;32.35;20.08;;;;;;;34.74;61.13;97729.69;4814397;29;20050;-72
2023/07/11 05:37:27;;;;;;;31.02;20.33;;;;;;;35.26;66.76;97731.47;4807719;29;20137;-71
2023/07/11 05:39:56;;;;;;;30.10;20.13;;;;;;;35.44;65.68;97732.44;4806439;29;20481;-71
2023/07/11 05:42:26;;;;;;;31.70;18.90;;;;;;;35.37;61.96;97734.31;4820389;29;20054;-70
2023/07/11 05:44:56;;;;;;;26.05;19.35;;;;;;;35.36;62.93;97730.75;4804412;29;20058;-70
2023/07/11 05:47:26;;;;;;;27.13;17.35;;;;;;;35.41;63.42;97732.38;4810331;29;20057;-70
2023/07/11 05:49:56;;;;;;;19.65;13.30;;;;;;;35.15;61.05;97736.84;4808464;29;20085;-70
2023/07/11 05:52:25;;;;;;;21.92;12.25;;;;;;;35.19;60.50;97738.84;4832979;29;20053;-70
2023/07/11 05:54:55;;;;;;;20.60;11.80;;;;;;;34.95;62.89;97726.38;4810989;29;20038;-69
2023/07/11 05:57:24;;;;;;;16.67;11.80;;;;;;;35.11;59.02;97727.75;4812808;29;20050;-70
2023/07/11 05:59:55;;;;;;;14.30;10.77;;;;;;;35.09;58.72;97735.59;4822450;29;20095;-69
2023/07/11 06:02:25;;;;;;;14.88;9.43;;;;;;;35.43;60.54;97725.34;4812309;29;20042;-69
2023/07/11 06:04:54;;;;;;;17.30;10.90;;;;;;;35.21;62.31;97729.06;4831344;29;20245;-69
2023/07/11 06:07:24;;;;;;;16.85;11.60;;;;;;;35.33;59.25;97727.97;4817646;29;20072;-69
2023/07/11 06:09:53;;;;;;;14.52;11.02;;;;;;;35.24;61.76;97724.75;4817877;29;20064;-69
2023/07/11 06:12:24;;;;;;;19.02;11.07;;;;;;;35.06;60.52;97728.06;4817789;29;20051;-70
2023/07/11 06:14:54;;;;;;;15.57;9.98;;;;;;;35.25;60.60;97720.81;4820457;29;20050;-70
2023/07/11 06:17:24;;;;;;;19.48;8.38;;;;;;;35.01;58.98;97719.34;4803791;29;20506;-69
2023/07/11 06:19:53;;;;;;;12.20;8.88;;;;;;;35.26;60.42;97720.47;4801693;29;20057;-69
2023/07/11 06:22:23;;;;;;;11.70;7.22;;;;;;;35.47;59.89;97714.34;4814864;29;20049;-71
2023/07/11 06:24:53;;;;;;;12.63;8.07;;;;;;;35.57;61.65;97716.41;4813861;29;20046;-69
2023/07/11 06:27:23;;;;;;;10.77;7.93;;;;;;;35.39;63.60;97708.00;4816742;29;20054;-71
2023/07/11 06:29:53;;;;;;;8.65;7.40;;;;;;;35.14;61.53;97712.44;4814585;29;20049;-71
2023/07/11 06:32:23;;;;;;;17.23;9.15;;;;;;;35.12;61.67;97712.03;4825105;29;20054;-69
2023/07/11 06:34:52;;;;;;;10.25;6.93;;;;;;;34.83;58.81;97712.88;4817678;29;20050;-68
2023/07/11 06:37:22;;;;;;;12.27;7.38;;;;;;;35.16;61.67;97704.63;4832474;29;20065;-69
2023/07/11 06:39:51;;;;;;;7.93;6.50;;;;;;;35.42;60.17;97709.97;4812925;29;20054;-70
2023/07/11 06:42:21;;;;;;;11.35;7.20;;;;;;;35.70;58.38;97705.91;4811510;29;20141;-68
2023/07/11 06:44:51;;;;;;;11.88;7.55;;;;;;;35.49;60.11;97693.53;4797943;29;20073;-68
2023/07/11 06:47:20;;;;;;;9.95;7.88;;;;;;;35.33;60.78;97692.97;4799379;29;20161;-68
2023/07/11 06:49:50;;;;;;;10.57;7.80;;;;;;;35.16;57.69;97693.59;4814269;29;20054;-71
2023/07/11 06:52:20;;;;;;;10.77;7.75;;;;;;;35.31;61.18;97689.03;4816593;29;20180;-68
2023/07/11 06:54:49;;;;;;;11.10;7.38;;;;;;;35.45;57.43;97689.94;4784074;29;20064;-73
2023/07/11 06:57:19;;;;;;;11.13;8.15;;;;;;;35.56;59.70;97684.50;4828332;29;20145;-67
2023/07/11 06:59:48;;;;;;;33.03;8.45;;;;;;;35.61;60.60;97681.41;4803263;29;20057;-69
2023/07/11 07:02:18;;;;;;;11.40;7.82;;;;;;;35.24;58.59;97688.94;4825318;29;20490;-68
2023/07/11 07:04:48;;;;;;;17.73;6.65;;;;;;;35.32;59.09;97685.88;4785723;29;20065;-69
2023/07/11 07:07:19;;;;;;;16.73;6.68;;;;;;;35.09;60.49;97679.75;4813209;29;20047;-68
2023/07/11 07:09:50;;;;;;;10.02;5.97;;;;;;;35.09;59.11;97682.50;4819748;29;20064;-67
2023/07/11 07:12:20;;;;;;;6.78;6.07;;;;;;;35.25;62.29;97672.06;4827900;29;20592;-68
2023/07/11 07:14:49;;;;;;;8.60;6.65;;;;;;;35.23;62.09;97671.63;4799986;29;20050;-68
2023/07/11 07:17:19;;;;;;;12.65;7.30;;;;;;;35.12;60.67;97673.47;4818452;29;20052;-67
2023/07/11 07:19:49;;;;;;;9.13;6.40;;;;;;;35.21;59.96;97675.94;4832992;29;20437;-70
2023/07/11 07:22:19;;;;;;;9.02;6.90;;;;;;;35.01;62.70;97664.31;4799702;29;20051;-70
2023/07/11 07:24:48;;;;;;;16.00;8.32;;;;;;;35.26;59.55;97665.38;4797983;29;20062;-69
2023/07/11 07:27:18;;;;;;;12.25;9.20;;;;;;;35.43;59.09;97661.19;4819789;29;20050;-70
2023/07/11 07:29:56;;;;;;;13.45;9.27;;;;;;;35.37;58.61;97654.44;4816754;29;20061;-71
2023/07/11 07:32:26;;;;;;;11.68;8.23;;;;;;;35.49;58.77;97654.97;4818272;29;20065;-68
2023/07/11 07:34:56;;;;;;;17.05;9.35;;;;;;;35.12;58.74;97651.44;4786140;29;20046;-68
2023/07/11 07:37:25;;;;;;;12.55;9.55;;;;;;;35.27;57.75;97655.97;4803271;29;20126;-66
2023/07/11 07:39:56;;;;;;;14.18;10.57;;;;;;;35.27;58.52;97644.16;4807115;29;20123;-69
2023/07/11 07:42:27;;;;;;;14.45;11.05;;;;;;;35.38;59.16;97637.53;4823949;29;20085;-66
2023/07/11 07:44:57;;;;;;;11.85;8.98;;;;;;;35.30;60.74;97635.91;4825003;29;20050;-66
2023/07/11 07:47:26;;;;;;;15.48;9.80;;;;;;;35.29;59.29;97631.56;4799894;29;20069;-66
2023/07/11 07:49:56;;;;;;;14.45;10.38;;;;;;;34.99;57.62;97644.66;4805590;29;20066;-66
2023/07/11 07:52:29;;;;;;;13.52;9.90;;;;;;;35.34;58.84;97633.19;4835387;29;20542;-67
2023/07/11 07:54:58;;;;;;;17.88;10.95;;;;;;;35.37;58.16;97633.22;4805063;29;20121;-67
2023/07/11 07:57:31;;;;;;;18.95;11.82;;;;;;;35.71;58.15;97630.34;4821161;29;20043;-67
2023/07/11 08:00:02;;;;;;;;;;;;;;;35.80;57.79;97622.53;4819143;29;20739;-69
2023/07/11 08:02:35;;;;;;;21.33;15.02;;;;;;;35.82;58.34;97612.69;4834710;29;19955;-67
2023/07/11 08:05:05;;;;;;;;;;;;;;;35.91;57.55;97613.13;4826692;29;20057;-67
2023/07/11 08:07:36;;;;;;;22.55;15.77;;;;;;;35.92;57.93;97608.41;4826526;29;20965;-69
2023/07/11 08:10:09;;;;;;;24.08;14.35;;;;;;;35.54;56.31;97602.25;4829233;29;20141;-66
2023/07/11 08:12:39;;;;;;;22.27;15.90;;;;;;;35.54;59.66;97612.47;4814440;29;20565;-69
2023/07/11 08:15:10;;;;;;;23.55;15.48;;;;;;;35.79;56.41;97598.91;4833096;29;20210;-69
2023/07/11 08:17:45;;;;;;;24.15;15.98;;;;;;;35.89;57.66;97598.19;4827466;29;20060;-67
2023/07/11 08:20:15;;;;;;;21.95;15.80;;;;;;;35.97;57.86;97600.59;4817806;29;20050;-67
2023/07/11 08:22:45;;;;;;;25.30;15.77;;;;;;;36.02;58.83;97593.91;4803167;29;20085;-67
2023/07/11 08:25:15;;;;;;;28.65;16.50;;;;;;;36.02;58.31;97591.16;4808787;29;20053;-67
2023/07/11 08:27:44;;;;;;;26.30;16.35;;;;;;;35.90;56.71;97585.94;4824348;29;20538;-68
2023/07/11 08:30:15;;;;;;;25.52;16.88;;;;;;;36.01;58.05;97590.34;4817362;29;20082;-68
2023/07/11 08:32:45;;;;;;;24.63;15.25;;;;;;;36.04;56.56;97584.06;4834898;29;20056;-69
2023/07/11 08:35:15;;;;;;;23.45;15.18;;;;;;;36.02;55.89;97591.16;4811746;29;20422;-68
2023/07/11 08:37:44;;;;;;;24.30;16.63;;;;;;;36.01;55.86;97587.59;4822227;29;20046;-68
2023/07/11 08:40:19;;;;;;;22.00;14.73;;;;;;;35.72;60.29;97582.31;4815665;29;20111;-66
2023/07/11 08:43:06;;;;;;;17.75;13.85;;;;;;;35.74;59.53;97582.72;4822475;29;20065;-69
2023/07/11 08:45:50;;;;;;;19.98;12.55;;;;;;;35.57;58.98;97592.44;4822815;29;20047;-69
2023/07/11 08:48:53;;;;;;;20.02;11.43;;;;;;;35.24;58.81;97584.31;4832322;29;20500;-65
2023/07/11 08:51:31;;;;;;;16.38;11.40;;;;;;;35.39;58.66;97577.75;4806640;29;20654;-65
2023/07/11 08:54:30;;;;;;;15.18;11.65;;;;;;;35.30;58.47;97575.34;4808954;29;20057;-65
2023/07/11 08:57:00;;;;;;;16.27;10.60;;;;;;;35.04;60.61;97576.28;4822764;29;20158;-66
2023/07/11 08:59:45;;;;;;;16.05;10.05;;;;;;;34.60;61.51;97565.22;4802715;29;20046;-66
2023/07/11 09:02:29;;;;;;;14.90;10.18;;;;;;;34.61;62.99;97580.53;4798762;29;20053;-66
2023/07/11 09:05:03;;;;;;;13.02;10.18;;;;;;;34.49;62.11;97571.78;4805484;29;20051;-67
2023/07/11 09:07:42;;;;;;;10.07;6.18;;;;;;;34.35;63.81;97571.59;4803435;29;20115;-67
2023/07/11 09:10:37;;;;;;;8.57;6.00;;;;;;;34.49;64.39;97571.78;4806652;29;20145;-67
2023/07/11 09:13:40;;;;;;;11.45;5.97;;;;;;;34.40;65.37;97569.31;4832084;29;20077;-65
2023/07/11 09:16:36;;;;;;;7.90;5.25;;;;;;;34.10;66.90;97571.31;4805768;29;20058;-65
2023/07/11 09:19:23;;;;;;;10.20;6.93;;;;;;;33.76;67.14;97565.00;4841737;29;20391;-65
2023/07/11 09:22:11;;;;;;;10.63;6.22;;;;;;;33.88;65.87;97564.75;4835313;29;20054;-67
2023/07/11 09:25:00;;;;;;;7.82;6.13;;;;;;;33.74;67.83;97559.84;4806125;29;20051;-66
2023/07/11 09:27:37;;;;;;;10.85;7.28;;;;;;;33.64;67.86;97554.16;4806758;29;20058;-65
2023/07/11 09:30:17;;;;;;;12.60;7.22;;;;;;;33.55;68.36;97556.44;4838664;29;20115;-67
2023/07/11 09:32:48;;;;;;;9.85;6.20;;;;;;;33.59;69.01;97560.00;4833091;29;20055;-66
2023/07/11 09:35:32;;;;;;;9.32;6.25;;;;;;;33.55;70.39;97545.44;4833974;29;20046;-66
2023/07/11 09:38:18;;;;;;;8.82;5.30;;;;;;;33.62;70.05;97551.03;4806093;29;20138;-66
2023/07/11 09:41:17;;;;;;;9.13;4.63;;;;;;;33.76;72.57;97548.50;4807093;29;20065;-67
2023/07/11 09:43:47;;;;;;;7.60;4.93;;;;;;;33.63;71.60;97547.91;4788885;29;20513;-65
2023/07/11 09:46:21;;;;;;;25.30;6.68;;;;;;;33.65;71.48;97548.31;4791403;29;20060;-64
2023/07/11 09:48:57;;;;;;;11.73;5.40;;;;;;;33.67;69.93;97550.72;4817825;29;20058;-65
2023/07/11 09:51:28;;;;;;;9.93;5.25;;;;;;;33.84;68.67;97547.44;4833696;29;20494;-65
2023/07/11 09:53:58;;;;;;;12.27;5.97;;;;;;;33.88;69.21;97541.97;4819362;29;20126;-67
2023/07/11 09:56:28;;;;;;;14.32;5.65;;;;;;;33.92;68.78;97538.09;4812498;29;20042;-66
2023/07/11 09:59:01;;;;;;;15.10;6.82;;;;;;;33.84;70.17;97539.19;4792932;29;20717;-65
2023/07/11 10:01:36;;;;;;;12.23;6.15;;;;;;;33.80;70.72;97533.66;4776580;29;20056;-64
2023/07/11 10:04:10;;;;;;;12.27;6.60;;;;;;;33.75;70.50;97538.69;4821596;29;20050;-65
2023/07/11 10:07:12;;;;;;;9.85;5.68;;;;;;;33.68;71.58;97533.88;4823757;29;20161;-65
2023/07/11 10:09:49;;;;;;;10.82;5.78;;;;;;;33.53;70.47;97528.53;4822239;29;20487;-64
2023/07/11 10:12:24;;;;;;;11.63;7.18;;;;;;;33.50;70.70;97532.03;4802496;29;20592;-66
2023/07/11 10:14:58;;;;;;;11.98;6.20;;;;;;;33.56;70.00;97519.53;4818564;29;20043;-67
2023/07/11 10:17:37;;;;;;;11.48;6.07;;;;;;;33.67;70.83;97524.06;4818488;29;20049;-66
2023/07/11 10:20:17;;;;;;;7.43;6.53;;;;;;;33.66;69.44;97516.19;4815864;29;20054;-66
2023/07/11 10:22:51;;;;;;;9.68;6.72;;;;;;;33.60;70.81;97520.38;4814485;29;20623;-66
2023/07/11 10:25:27;;;;;;;22.45;9.15;;;;;;;33.46;71.65;97520.97;4817007;29;20065;-66
2023/07/11 10:28:20;;;;;;;9.65;7.32;;;;;;;33.38;70.39;97509.09;4818036;29;20056;-65
2023/07/11 10:30:51;;;;;;;12.80;8.13;;;;;;;33.33;69.29;97511.38;4809521;29;20049;-66
2023/07/11 10:33:30;;;;;;;13.50;7.97;;;;;;;33.26;70.80;97514.81;4837515;29;20049;-66
2023/07/11 10:36:22;;;;;;;10.82;7.05;;;;;;;33.25;72.61;97504.19;4818002;29;20088;-66
2023/07/11 10:38:57;;;;;;;7.22;5.65;;;;;;;33.22;72.23;97510.44;4803570;29;20054;-67
2023/07/11 10:42:24;;;;;;;11.20;6.20;;;;;;;33.30;74.38;97506.63;4818321;29;20050;-66
2023/07/11 10:45:07;;;;;;;9.70;6.20;;;;;;;33.29;73.59;97502.28;4790955;29;20054;-67
2023/07/11 10:47:50;;;;;;;8.57;7.05;;;;;;;33.25;73.38;97502.25;4789911;29;20551;-66
2023/07/11 10:50:26;;;;;;;9.75;6.18;;;;;;;33.20;74.33;97507.25;4816572;29;20061;-66
2023/07/11 10:53:01;;;;;;;8.45;6.43;;;;;;;33.20;71.24;97501.78;4802005;29;20859;-65
2023/07/11 10:55:38;;;;;;;9.20;6.32;;;;;;;33.22;71.42;97497.50;4814425;29;20170;-66
2023/07/11 10:58:09;;;;;;;9.63;6.60;;;;;;;33.21;72.01;97490.44;4797782;29;20055;-65
2023/07/11 11:01:10;;;;;;;10.63;7.15;;;;;;;33.25;73.03;97483.03;4817120;29;20109;-66
2023/07/11 11:03:44;;;;;;;9.70;7.35;;;;;;;33.24;69.90;97481.44;4800499;29;20166;-66
2023/07/11 11:06:58;;;;;;;11.05;7.60;;;;;;;33.24;69.53;97486.94;4825570;29;20043;-67
2023/07/11 11:09:54;;;;;;;9.93;7.50;;;;;;;33.30;71.22;97488.22;4801161;29;20439;-67
2023/07/11 11:12:43;;;;;;;12.73;8.82;;;;;;;33.30;68.34;97488.22;4796832;29;20125;-67
2023/07/11 11:15:13;;;;;;;10.35;7.10;;;;;;;33.30;67.44;97482.72;4828434;29;20046;-67
2023/07/11 11:17:58;;;;;;;14.20;8.18;;;;;;;33.33;69.97;97475.69;4803271;29;20051;-67
2023/07/11 11:21:09;;;;;;;14.43;8.20;;;;;;;33.39;71.98;97471.47;4830241;29;20046;-67
2023/07/11 11:24:05;;;;;;;12.83;9.03;;;;;;;33.37;71.82;97468.31;4805937;29;20047;-67
2023/07/11 11:26:47;;;;;;;11.20;9.02;;;;;;;33.35;70.57;97465.13;4817133;29;20051;-66
2023/07/11 11:29:44;;;;;;;10.98;8.85;;;;;;;33.43;71.97;97472.31;4805337;29;20153;-67
2023/07/11 11:32:44;;;;;;;14.90;8.70;;;;;;;33.50;72.58;97466.13;4817243;29;20069;-67
2023/07/11 11:35:49;;;;;;;13.60;7.90;;;;;;;33.54;72.25;97462.28;4807192;29;20062;-68
2023/07/11 11:38:46;;;;;;;10.77;8.20;;;;;;;33.54;71.42;97461.47;4802534;29;20079;-67
2023/07/11 11:41:22;;;;;;;10.93;7.93;;;;;;;33.49;71.69;97465.34;4834776;29;20160;-67
2023/07/11 11:43:53;;;;;;;10.45;8.23;;;;;;;33.43;72.95;97461.31;4842296;29;20131;-67
2023/07/11 11:46:25;;;;;;;10.23;8.55;;;;;;;33.45;73.39;97458.22;4805287;29;20084;-67
2023/07/11 11:49:02;;;;;;;11.65;7.75;;;;;;;33.51;72.43;97464.94;4822620;29;20050;-66
2023/07/11 11:51:35;;;;;;;9.95;8.07;;;;;;;33.44;72.66;97453.88;4810261;29;20520;-66
2023/07/11 11:54:21;;;;;;;12.43;7.80;;;;;;;33.42;70.62;97465.22;4803160;29;20054;-67
2023/07/11 11:57:01;;;;;;;10.95;8.35;;;;;;;33.37;72.51;97462.81;4803986;29;20352;-67
2023/07/11 11:59:32;;;;;;;10.48;8.70;;;;;;;33.39;73.54;97452.25;4832144;29;20054;-67